Data for 08/12/2016

Time Sea-Level Adjusted Pressure Absolute Pressure Temperature Relative Humidity Dew Point   
(mb) (inHg) (mb) (inHg) (C) (F) (%) (C) (F)
00:05 1024 30.24 853 25.19 14.8 58.6 46 3.3 37.9
00:10 1024 30.24 853 25.19 15.1 59.2 44 3.2 37.7
00:15 1024 30.24 853 25.19 15.2 59.3 45 3.5 38.3
00:20 1024 30.24 853 25.19 15 58.9 46 3.7 38.6
00:25 1024 30.24 853 25.19 14.8 58.6 47 3.8 38.8
00:30 1024 30.24 853 25.19 14.6 58.2 47 3.6 38.4
00:35 1024 30.24 853 25.19 14.6 58.3 48 3.7 38.7
00:40 1024 30.24 853 25.19 14.6 58.4 47 3.6 38.5
00:45 1024 30.24 853 25.19 14.6 58.3 47 3.6 38.4
00:50 1024 30.24 853 25.19 14.8 58.6 46 3.5 38.3
00:55 1024 30.24 853 25.19 15.1 59.2 47 4 39.2
01:00 1024 30.24 853 25.19 15 59.1 45 3.4 38.1
01:05 1024 30.24 853 25.19 15 59 46 3.6 38.4
01:10 1024 30.24 853 25.19 14.7 58.5 49 4.1 39.4
01:15 1024 30.24 853 25.19 14.4 57.8 50 4.3 39.7
01:20 1024 30.24 853 25.19 14.3 57.7 48 3.5 38.3
01:25 1024 30.24 853 25.19 14.2 57.5 49 3.7 38.7
01:30 1024 30.24 853 25.19 13.9 57 50 3.8 38.9
01:35 1024 30.24 853 25.19 13.8 56.8 49 3.4 38.2
01:40 1024 30.24 853 25.19 13.8 56.9 49 3.4 38.2
01:45 1024 30.24 853 25.19 13.9 57 50 3.7 38.6
01:50 1024 30.24 853 25.19 13.5 56.4 51 3.7 38.7
01:55 1024 30.24 853 25.19 13.6 56.5 50 3.6 38.5
02:00 1024 30.24 853 25.19 13.6 56.5 51 3.8 38.9
02:05 1024 30.24 853 25.19 13.5 56.3 52 4 39.1
02:10 1024 30.24 853 25.19 13.4 56.2 51 3.5 38.4
02:15 1024 30.24 853 25.19 13.5 56.2 51 3.6 38.4
02:20 1024 30.24 853 25.19 13.4 56.1 51 3.6 38.5
02:25 1024 30.24 853 25.19 13.3 56 51 3.5 38.4
02:30 1024 30.24 853 25.19 13.1 55.6 53 3.8 38.8
02:35 1024 30.24 853 25.19 12.8 55 54 3.9 38.9
02:40 1024 30.24 853 25.19 12.5 54.5 56 3.9 39.1
02:45 1024 30.24 853 25.19 12.3 54.1 57 4 39.3
02:50 1024 30.24 853 25.19 12.1 53.8 56 3.8 38.8
02:55 1024 30.24 853 25.19 12.4 54.4 53 3.3 37.9
03:00 1024 30.24 853 25.19 12.7 54.9 54 3.7 38.6
03:05 1024 30.24 853 25.19 12.7 54.9 53 3.5 38.3
03:10 1024 30.24 853 25.19 12.5 54.6 55 3.7 38.7
03:15 1024 30.24 853 25.19 12.3 54.1 55 3.7 38.6
03:20 1024 30.24 853 25.19 12.3 54.1 55 3.6 38.6
03:25 1024 30.24 853 25.19 12.2 54 55 3.6 38.4
03:30 1024 30.24 853 25.19 12.3 54.1 55 3.6 38.5
03:35 1024 30.24 853 25.19 12.2 53.9 56 3.6 38.5
03:40 1024 30.24 853 25.19 12.2 54 56 3.6 38.5
03:45 1024 30.24 853 25.19 12.3 54.1 56 3.8 38.8
03:50 1024 30.24 854 25.22 12 53.5 56 3.5 38.4
03:55 1024 30.24 853 25.19 12.1 53.7 56 3.6 38.4
04:00 1024 30.24 853 25.19 12.2 53.9 55 3.3 38
04:05 1024 30.24 854 25.22 12.4 54.4 53 3.2 37.7
04:10 1024 30.24 853 25.19 12.6 54.6 53 3.4 38.2
04:15 1024 30.24 854 25.22 12.5 54.4 54 3.4 38.2
04:20 1024 30.24 854 25.22 12.4 54.3 54 3.4 38.1
04:25 1024 30.24 854 25.22 12 53.7 57 3.7 38.7
04:30 1024 30.24 854 25.22 11.6 52.9 58 3.5 38.4
04:35 1024 30.24 854 25.22 11.6 53 58 3.6 38.5
04:40 1024 30.24 854 25.22 11.4 52.4 58 3.5 38.3
04:45 1024 30.24 854 25.22 11.3 52.4 58 3.3 38
04:50 1024 30.24 854 25.22 11.7 53 56 3.1 37.7
04:55 1024 30.24 854 25.22 12.2 54 54 3.3 38
05:00 1025 30.27 854 25.22 12.5 54.6 53 3.3 38
05:05 1025 30.27 854 25.22 12.4 54.4 55 3.6 38.5
05:10 1025 30.27 854 25.22 12 53.5 57 3.8 38.9
05:15 1025 30.27 854 25.22 11.6 52.9 57 3.3 38
05:20 1025 30.27 854 25.22 11.9 53.4 56 3.5 38.3
05:25 1025 30.27 854 25.22 11.7 53.1 58 3.8 38.8
05:30 1025 30.27 854 25.22 11.4 52.4 59 3.7 38.7
05:35 1025 30.27 854 25.22 11.2 52.2 59 3.7 38.6
05:40 1025 30.27 854 25.22 11.2 52.1 59 3.4 38.1
05:45 1025 30.27 854 25.22 11.5 52.6 58 3.5 38.4
05:50 1025 30.27 854 25.22 11.8 53.3 56 3.3 38
05:55 1025 30.27 854 25.22 12.1 53.8 55 3.5 38.3
06:00 1025 30.27 854 25.22 12.2 53.9 55 3.4 38
06:05 1025 30.27 854 25.22 12.2 54 56 3.8 38.8
06:10 1025 30.27 854 25.22 12 53.6 57 3.8 38.8
06:15 1025 30.27 854 25.22 11.9 53.4 57 3.7 38.7
06:20 1025 30.27 854 25.22 12 53.7 56 3.6 38.5
06:25 1025 30.27 854 25.22 12.1 53.8 57 3.8 38.9
06:30 1025 30.27 854 25.22 12.2 53.9 56 3.8 38.8
06:35 1025 30.27 854 25.22 12.4 54.3 55 3.7 38.6
06:40 1025 30.27 854 25.22 12.9 55.2 55 4 39.3
06:45 1025 30.27 854 25.22 13.1 55.6 54 4.1 39.5
06:50 1025 30.27 854 25.22 13.4 56 54 4.2 39.6
06:55 1025 30.27 854 25.22 13.7 56.7 52 4.2 39.6
07:00 1025 30.27 854 25.22 14.1 57.4 51 4.2 39.6
07:05 1025 30.27 854 25.22 14.5 58.1 51 4.5 40.1
07:10 1025 30.27 854 25.22 14.8 58.7 50 4.5 40.1
07:15 1025 30.27 854 25.22 15.4 59.6 48 4.4 39.9
07:20 1025 30.27 854 25.22 15.9 60.5 47 4.8 40.6
07:25 1025 30.27 854 25.22 16.3 61.3 43 3.9 39
07:30 1025 30.27 854 25.22 17.2 62.9 42 4.3 39.8
07:35 1025 30.27 854 25.22 17.8 64 40 4.1 39.4
07:40 1025 30.27 854 25.22 18.1 64.6 41 4.7 40.4
07:45 1025 30.27 854 25.22 18.1 64.6 41 4.9 40.8
07:50 1025 30.27 854 25.22 17.6 63.8 42 4.5 40.2
07:55 1025 30.27 854 25.22 17.8 64.1 43 5.1 41.1
08:00 1025 30.27 854 25.22 17.5 63.5 42 4.6 40.2
08:05 1025 30.27 854 25.22 17.4 63.4 41 4.2 39.6
08:10 1025 30.27 854 25.22 18.2 64.7 40 4.6 40.3
08:15 1025 30.27 854 25.22 18.8 65.8 37 4.1 39.3
08:20 1025 30.27 854 25.22 19.4 66.9 36 4.2 39.5
08:25 1025 30.27 854 25.22 19.8 67.7 36 4.4 39.9
08:30 1025 30.27 855 25.25 20.3 68.5 34 4 39.2
08:35 1025 30.27 854 25.22 20.1 68.3 35 4.4 39.9
08:40 1025 30.27 854 25.22 20 67.9 35 4.3 39.7
08:45 1025 30.27 854 25.22 20.2 68.4 35 4.4 39.9
08:50 1025 30.27 854 25.22 20.2 68.3 35 4.5 40
08:55 1025 30.27 854 25.22 19.8 67.6 36 4.3 39.8
09:00 1025 30.27 854 25.22 20.3 68.5 34 4 39.3
09:05 1025 30.27 854 25.22 20.4 68.7 34 4.3 39.8
09:10 1025 30.27 854 25.22 20.6 69 34 4.3 39.8
09:15 1025 30.27 854 25.22 21.2 70.2 32 4.1 39.3
09:20 1025 30.27 854 25.22 21.2 70.1 34 4.8 40.6
09:25 1025 30.27 854 25.22 21.1 70 34 4.7 40.5
09:30 1025 30.27 854 25.22 21.4 70.6 33 4.6 40.2
09:35 1025 30.27 854 25.22 21.6 70.8 32 4.4 40
09:40 1025 30.27 854 25.22 21.9 71.4 31 4.3 39.8
09:45 1025 30.27 854 25.22 21.6 70.9 32 4.6 40.3
09:50 1025 30.27 854 25.22 22 71.6 31 4.4 39.9
09:55 1025 30.27 854 25.22 22.3 72.2 31 4.7 40.5
10:00 1025 30.27 854 25.22 21.7 71 32 4.5 40
10:05 1025 30.27 854 25.22 21.8 71.2 32 4.6 40.3
10:10 1025 30.27 854 25.22 22.1 71.7 31 4.4 40
10:15 1025 30.27 854 25.22 22.3 72.2 30 4.1 39.3
10:20 1025 30.27 854 25.22 22.5 72.5 31 4.7 40.5
10:25 1025 30.27 854 25.22 22.6 72.6 31 4.7 40.4
10:30 1025 30.27 854 25.22 22.7 72.9 31 4.9 40.9
10:35 1025 30.27 854 25.22 22.6 72.7 30 4.3 39.8
10:40 1025 30.27 854 25.22 22.1 71.9 31 4.6 40.3
10:45 1025 30.27 854 25.22 23.1 73.5 29 4.5 40.1
10:50 1025 30.27 854 25.22 23.2 73.8 30 5 41.1
10:55 1025 30.27 854 25.22 23.4 74 28 4.1 39.3
11:00 1025 30.27 854 25.22 23.1 73.6 29 4.5 40.1
11:05 1025 30.27 854 25.22 23.2 73.7 29 4.2 39.6
11:10 1024 30.24 854 25.22 23.8 74.8 28 4.5 40.2
11:15 1024 30.24 854 25.22 23.9 75.1 28 4.3 39.8
11:20 1024 30.24 854 25.22 23.7 74.6 29 4.6 40.3
11:25 1024 30.24 854 25.22 23.7 74.6 28 4.4 39.9
11:30 1024 30.24 854 25.22 23.2 73.8 30 4.9 40.8
11:35 1024 30.24 853 25.19 22.6 72.8 29 4.2 39.5
11:40 1024 30.24 853 25.19 23.1 73.7 29 4.4 39.9
11:45 1024 30.24 853 25.19 23.8 74.8 29 4.8 40.7
11:50 1024 30.24 853 25.19 24.1 75.4 26 3.8 38.8
11:55 1024 30.24 853 25.19 24.6 76.2 26 4.1 39.3
12:00 1024 30.24 853 25.19 24 75.2 28 4.4 39.9
12:05 1024 30.24 853 25.19 24.1 75.4 28 4.9 40.8
12:10 1024 30.24 853 25.19 24.3 75.7 26 3.6 38.5
12:15 1024 30.24 853 25.19 24.4 75.9 26 4.1 39.4
12:20 1024 30.24 853 25.19 24.8 76.6 26 4.1 39.4
12:25 1024 30.24 853 25.19 24.5 76.1 27 4.7 40.4
12:30 1024 30.24 853 25.19 23.9 75 28 4.6 40.3
12:35 1024 30.24 853 25.19 24.2 75.6 26 3.6 38.5
12:40 1024 30.24 853 25.19 24.6 76.3 25 3.7 38.7
12:45 1024 30.24 853 25.19 25.2 77.4 26 4.7 40.5
12:50 1024 30.24 853 25.19 24.8 76.6 26 4.4 40
12:55 1024 30.24 853 25.19 24.5 76.1 26 3.8 38.9
13:00 1024 30.24 853 25.19 24.7 76.4 25 3.8 38.8
13:05 1024 30.24 853 25.19 25.1 77.2 25 3.7 38.7
13:10 1024 30.24 853 25.19 25.2 77.3 25 4.2 39.6
13:15 1024 30.24 853 25.19 25.1 77.1 25 3.8 38.8
13:20 1024 30.24 853 25.19 25 77 26 4.3 39.7
13:25 1024 30.24 853 25.19 24.8 76.6 26 4.1 39.4
13:30 1024 30.24 853 25.19 24.9 76.9 26 4.4 39.9
13:35 1024 30.24 853 25.19 25.3 77.6 24 3.6 38.5
13:40 1024 30.24 853 25.19 24.1 75.3 26 3.4 38.2
13:45 1024 30.24 853 25.19 24.5 76.1 24 2.9 37.2
13:50 1024 30.24 853 25.19 25.4 77.8 24 3.5 38.4
13:55 1024 30.24 853 25.19 25.8 78.4 23 3.3 37.9
14:00 1023 30.21 853 25.19 25.6 78 23 3.4 38.2
14:05 1023 30.21 853 25.19 26.1 78.9 23 3.6 38.4
14:10 1023 30.21 853 25.19 26.3 79.3 22 3 37.4
14:15 1023 30.21 853 25.19 26.6 79.9 22 3.5 38.2
14:20 1023 30.21 852 25.16 26 78.9 24 4.2 39.6
14:25 1023 30.21 852 25.16 25.4 77.7 24 3.5 38.2
14:30 1023 30.21 852 25.16 25 77 24 3.1 37.6
14:35 1023 30.21 852 25.16 25.4 77.8 22 2.7 36.8
14:40 1023 30.21 852 25.16 26.1 79 21 2.4 36.3
14:45 1023 30.21 852 25.16 26.5 79.7 22 3.3 38
14:50 1023 30.21 852 25.16 26.3 79.3 21 2.5 36.5
14:55 1023 30.21 852 25.16 26.1 79 22 3.1 37.5
15:00 1023 30.21 852 25.16 25.8 78.5 21 2.3 36.1
15:05 1023 30.21 852 25.16 26.3 79.3 21 2.2 35.9
15:10 1023 30.21 852 25.16 26.6 79.9 21 2.6 36.7
15:15 1023 30.21 852 25.16 26.9 80.3 19 1.8 35.3
15:20 1023 30.21 852 25.16 26 78.8 21 2.1 35.8
15:25 1023 30.21 852 25.16 26.3 79.3 21 2.6 36.6
15:30 1023 30.21 852 25.16 26.4 79.5 20 1.8 35.3
15:35 1023 30.21 852 25.16 25.8 78.4 20 1.5 34.7
15:40 1023 30.21 852 25.16 26.1 79.1 20 1.6 34.9
15:45 1023 30.21 852 25.16 26.5 79.8 20 1.7 35
15:50 1023 30.21 852 25.16 26 78.8 20 1.9 35.4
15:55 1023 30.21 852 25.16 25.2 77.3 21 1.4 34.5
16:00 1023 30.21 852 25.16 25.7 78.2 20 1.1 34
16:05 1023 30.21 852 25.16 26.1 79 19 1.2 34.1
16:10 1023 30.21 852 25.16 26.3 79.4 19 0.9 33.6
16:15 1023 30.21 852 25.16 26.7 80.1 20 2 35.6
16:20 1023 30.21 852 25.16 26.8 80.2 20 2.3 36.2
16:25 1023 30.21 852 25.16 27 80.5 18 0.8 33.5
16:30 1023 30.21 852 25.16 26.8 80.2 19 1.2 34.1
16:35 1023 30.21 852 25.16 25.9 78.6 20 1.6 34.8
16:40 1023 30.21 852 25.16 25.3 77.5 20 1.2 34.1
16:45 1023 30.21 852 25.16 25.4 77.8 19 0.7 33.2
16:50 1023 30.21 852 25.16 26.3 79.3 20 1.6 34.9
16:55 1023 30.21 852 25.16 26.6 80 18 0.4 32.7
17:00 1022 30.18 852 25.16 26.9 80.4 19 1.5 34.7
17:05 1022 30.18 852 25.16 26.7 80.1 19 1.7 35.1
17:10 1023 30.21 852 25.16 26.5 79.6 19 0.9 33.6
17:15 1022 30.18 852 25.16 26.3 79.3 19 0.8 33.4
17:20 1022 30.18 852 25.16 26.2 79.1 18 0.5 33
17:25 1022 30.18 852 25.16 26.3 79.4 19 1.3 34.4
17:30 1022 30.18 852 25.16 26.2 79.2 19 1.4 34.5
17:35 1022 30.18 852 25.16 26.2 79.2 19 0.8 33.4
17:40 1022 30.18 852 25.16 26.4 79.6 18 0.4 32.8
17:45 1022 30.18 852 25.16 26.3 79.4 19 1.4 34.4
17:50 1022 30.18 852 25.16 26.5 79.6 19 1.4 34.6
17:55 1022 30.18 852 25.16 26.2 79.2 19 1.3 34.3
18:00 1022 30.18 852 25.16 25.9 78.6 19 0.8 33.5
18:05 1022 30.18 852 25.16 25.6 78 20 1 33.8
18:10 1022 30.18 852 25.16 25.4 77.8 19 0.6 33.1
18:15 1022 30.18 852 25.16 25.3 77.6 20 0.7 33.2
18:20 1022 30.18 852 25.16 25.3 77.5 21 1.8 35.3
18:25 1022 30.18 852 25.16 25.2 77.3 20 0.7 33.2
18:30 1022 30.18 852 25.16 25.2 77.3 19 0.4 32.7
18:35 1022 30.18 852 25.16 25.1 77.2 21 1.3 34.3
18:40 1023 30.21 852 25.16 25 76.9 20 1 33.8
18:45 1023 30.21 852 25.16 24.7 76.5 21 1.5 34.7
18:50 1023 30.21 852 25.16 24.5 76.1 23 2 35.6
18:55 1023 30.21 852 25.16 24.3 75.7 22 1.6 34.8
19:00 1023 30.21 852 25.16 24.2 75.5 23 1.7 35
19:05 1023 30.21 852 25.16 23.9 75.1 23 1.7 35
19:10 1023 30.21 852 25.16 23.8 74.8 23 1.6 35
19:15 1023 30.21 852 25.16 23.6 74.5 24 2 35.6
19:20 1023 30.21 852 25.16 23.6 74.4 24 2.1 35.7
19:25 1023 30.21 852 25.16 23.4 74.1 24 1.9 35.4
19:30 1023 30.21 852 25.16 23.1 73.7 27 3.1 37.6
19:35 1023 30.21 852 25.16 22.3 72.2 30 3.9 39
19:40 1023 30.21 852 25.16 21.8 71.2 31 4.1 39.4
19:45 1023 30.21 853 25.19 21.5 70.8 32 4.1 39.4
19:50 1023 30.21 853 25.19 21.5 70.7 32 4.2 39.6
19:55 1024 30.24 853 25.19 21.4 70.5 32 4.3 39.8
20:00 1024 30.24 853 25.19 21.3 70.4 33 4.4 39.8
20:05 1024 30.24 853 25.19 21.1 70 33 4.5 40.1
20:10 1024 30.24 853 25.19 20.9 69.6 34 4.5 40.1
20:15 1024 30.24 853 25.19 20.8 69.4 34 4.5 40.1
20:20 1024 30.24 853 25.19 20.7 69.2 34 4.4 39.9
20:25 1024 30.24 853 25.19 20.6 69 34 4.5 40.1
20:30 1024 30.24 853 25.19 20.5 68.8 35 4.7 40.5
20:35 1024 30.24 853 25.19 20.2 68.4 38 5.5 41.9
20:40 1024 30.24 853 25.19 19.9 67.8 40 6 42.7
20:45 1024 30.24 854 25.22 19.7 67.5 41 6.2 43.1
20:50 1024 30.24 854 25.22 19.6 67.2 42 6.3 43.4
20:55 1024 30.24 854 25.22 19.5 67.1 42 6.3 43.3
21:00 1024 30.24 854 25.22 19.4 67 42 6.4 43.6
21:05 1024 30.24 854 25.22 19.2 66.5 44 6.7 44
21:10 1025 30.27 854 25.22 19 66.1 45 6.8 44.2
21:15 1025 30.27 854 25.22 18.8 65.9 46 7 44.5
21:20 1025 30.27 854 25.22 18.7 65.6 46 6.9 44.4
21:25 1025 30.27 854 25.22 18.7 65.6 46 6.9 44.3
21:30 1025 30.27 854 25.22 18.6 65.5 46 6.9 44.5
21:35 1025 30.27 854 25.22 18.6 65.5 46 6.9 44.5
21:40 1025 30.27 854 25.22 18.5 65.2 47 7.1 44.7
21:45 1025 30.27 854 25.22 18.2 64.8 48 7 44.6
21:50 1025 30.27 854 25.22 18.1 64.6 48 7.1 44.7
21:55 1025 30.27 854 25.22 18 64.5 48 7 44.6
22:00 1025 30.27 854 25.22 18 64.5 48 7 44.6
22:05 1025 30.27 854 25.22 17.9 64.3 48 7 44.6
22:10 1025 30.27 854 25.22 17.9 64.2 49 7 44.6
22:15 1025 30.27 854 25.22 17.8 64.1 48 6.9 44.4
22:20 1025 30.27 854 25.22 17.8 64 48 6.9 44.4
22:25 1025 30.27 854 25.22 17.8 64 49 7 44.6
22:30 1025 30.27 854 25.22 17.5 63.5 49 6.9 44.5
22:35 1025 30.27 854 25.22 17.3 63.2 50 6.8 44.3
22:40 1025 30.27 854 25.22 17.4 63.2 49 6.7 44
22:45 1025 30.27 854 25.22 17.4 63.4 49 6.6 43.9
22:50 1025 30.27 854 25.22 17.4 63.3 49 6.7 44.1
22:55 1025 30.27 854 25.22 17.3 63.1 49 6.6 43.8
23:00 1025 30.27 854 25.22 17.3 63.1 48 6.2 43.2
23:05 1025 30.27 854 25.22 17.2 63 49 6.4 43.6
23:10 1025 30.27 854 25.22 17.2 62.9 48 6.3 43.3
23:15 1025 30.27 854 25.22 17.1 62.8 48 6 42.9
23:20 1025 30.27 854 25.22 17 62.7 48 6 42.7
23:25 1025 30.27 854 25.22 17 62.7 47 5.9 42.6
23:30 1025 30.27 854 25.22 16.9 62.5 48 6 42.7
23:35 1025 30.27 854 25.22 16.8 62.2 48 5.8 42.5
23:40 1025 30.27 854 25.22 16.8 62.2 48 5.8 42.4
23:45 1025 30.27 854 25.22 16.7 62 48 5.9 42.6
23:50 1025 30.27 854 25.22 16.5 61.8 49 5.7 42.3
23:55 1025 30.27 854 25.22 16.5 61.8 49 5.8 42.4
24:00 1025 30.27 854 25.22 16.5 61.7 49 5.8 42.4